createdAt,value
2022-10-05T00:02:16.616Z,91.82
2022-10-05T00:04:43.335Z,92.12
2022-10-05T00:07:14.034Z,92.55
2022-10-05T00:09:43.853Z,92.86
2022-10-05T00:12:14.440Z,93.04
2022-10-05T00:14:41.286Z,93.25
2022-10-05T00:17:13.910Z,93.55
2022-10-05T00:19:40.451Z,93.62
2022-10-05T00:22:11.955Z,93.77
2022-10-05T00:24:38.650Z,93.97
2022-10-05T00:27:15.031Z,94.09
2022-10-05T00:29:41.580Z,94.14
2022-10-05T00:32:09.419Z,94.01
2022-10-05T00:34:36.131Z,94.01
2022-10-05T00:37:03.376Z,93.68
2022-10-05T00:39:29.949Z,94.03
2022-10-05T00:42:12.911Z,94.04
2022-10-05T00:44:45.284Z,94.14
2022-10-05T00:47:25.531Z,94.16
2022-10-05T00:50:13.362Z,93.64
2022-10-05T00:52:51.424Z,92.96
2022-10-05T00:55:26.120Z,92.46
2022-10-05T00:58:04.485Z,92.74
2022-10-05T01:00:41.553Z,93.01
2022-10-05T01:03:18.030Z,93.48
2022-10-05T01:05:56.954Z,92.62
2022-10-05T01:08:36.781Z,92.27
2022-10-05T01:11:10.361Z,92.93
2022-10-05T01:13:49.107Z,93.22
2022-10-05T01:16:24.192Z,92.95
2022-10-05T01:18:58.416Z,93.34
2022-10-05T01:21:26.928Z,93.19
2022-10-05T01:24:25.916Z,93.57
2022-10-05T01:27:15.670Z,93.69
2022-10-05T01:29:49.405Z,94.53
2022-10-05T01:32:23.354Z,95.49
2022-10-05T01:34:57.066Z,95.15
2022-10-05T01:37:28.053Z,94.68
2022-10-05T01:40:04.658Z,93.83
2022-10-05T01:42:42.663Z,93.75
2022-10-05T01:45:20.821Z,94.09
2022-10-05T01:47:50.910Z,94.08
2022-10-05T01:50:30.384Z,94.14
2022-10-05T01:53:07.254Z,94.35
2022-10-05T01:55:42.847Z,94.33
2022-10-05T01:58:21.236Z,93.25
2022-10-05T02:01:00.294Z,92.69
2022-10-05T02:03:31.895Z,92.35
2022-10-05T02:06:05.049Z,92.71
2022-10-05T02:08:36.514Z,92.35
2022-10-05T02:11:07.322Z,92.60
2022-10-05T02:13:39.833Z,92.67
2022-10-05T02:16:15.520Z,92.94
2022-10-05T02:18:49.596Z,93.35
2022-10-05T02:21:17.729Z,93.49
2022-10-05T02:23:45.862Z,93.59
2022-10-05T02:26:13.432Z,93.89
2022-10-05T02:28:43.918Z,94.00
2022-10-05T02:31:14.896Z,94.25
2022-10-05T02:33:41.465Z,93.95
2022-10-05T02:36:13.766Z,93.50
2022-10-05T02:38:57.649Z,93.79
2022-10-05T02:41:35.723Z,94.22
2022-10-05T02:44:13.716Z,94.31
2022-10-05T02:46:47.380Z,94.37
2022-10-05T02:49:23.212Z,93.86
2022-10-05T02:51:56.148Z,93.73
2022-10-05T02:54:41.787Z,93.10
2022-10-05T02:57:14.866Z,92.36
2022-10-05T02:59:47.544Z,91.78
2022-10-05T03:02:21.896Z,91.88
2022-10-05T03:04:58.683Z,91.69
2022-10-05T03:07:30.483Z,91.47
2022-10-05T03:10:02.403Z,91.91
2022-10-05T03:12:36.902Z,92.43
2022-10-05T03:15:19.526Z,92.57
2022-10-05T03:17:54.826Z,93.07
2022-10-05T03:20:36.512Z,93.17
2022-10-05T03:23:04.780Z,93.60
2022-10-05T03:25:46.911Z,93.56
2022-10-05T03:28:20.428Z,93.33
2022-10-05T03:30:51.899Z,93.71
2022-10-05T03:33:29.829Z,93.89
2022-10-05T03:36:01.679Z,93.96
2022-10-05T03:38:47.383Z,93.91
2022-10-05T03:41:21.106Z,94.32
2022-10-05T03:44:09.514Z,94.13
2022-10-05T03:46:48.169Z,94.25
2022-10-05T03:49:25.754Z,93.73
2022-10-05T03:52:01.378Z,93.60
2022-10-05T03:54:33.212Z,93.40
2022-10-05T03:57:03.137Z,93.69
2022-10-05T03:59:37.820Z,93.67
2022-10-05T04:02:07.134Z,94.08
2022-10-05T04:04:40.729Z,94.28
2022-10-05T04:07:11.855Z,94.68
2022-10-05T04:09:42.765Z,94.72
2022-10-05T04:12:16.351Z,95.26
2022-10-05T04:14:46.827Z,95.15
2022-10-05T04:17:17.772Z,94.64
2022-10-05T04:19:55.188Z,94.19
2022-10-05T04:22:25.176Z,94.69
2022-10-05T04:24:58.485Z,94.53
2022-10-05T04:27:32.059Z,94.99
2022-10-05T04:30:03.897Z,95.14
2022-10-05T04:32:35.414Z,95.70
2022-10-05T04:35:23.020Z,94.81
2022-10-05T04:37:59.174Z,94.79
2022-10-05T04:40:38.929Z,93.53
2022-10-05T04:43:13.026Z,92.59
2022-10-05T04:45:55.489Z,92.66
2022-10-05T04:48:44.385Z,91.87
2022-10-05T04:51:23.783Z,93.21
2022-10-05T04:53:54.943Z,93.94
2022-10-05T04:56:29.922Z,93.76
2022-10-05T04:59:14.205Z,94.18
2022-10-05T05:01:59.380Z,94.05
2022-10-05T05:04:41.176Z,95.09
2022-10-05T05:07:23.532Z,95.70
2022-10-05T05:10:31.274Z,95.58
2022-10-05T05:13:07.057Z,95.51
2022-10-05T05:15:44.144Z,95.48
2022-10-05T05:18:36.971Z,95.49
2022-10-05T05:21:15.596Z,95.89
2022-10-05T05:23:50.124Z,96.26
2022-10-05T05:26:23.890Z,95.78
2022-10-05T05:28:58.393Z,95.78
2022-10-05T05:31:43.587Z,95.47
2022-10-05T05:34:33.500Z,95.17
2022-10-05T05:37:06.451Z,96.13
2022-10-05T05:39:41.752Z,99.69
2022-10-05T05:42:25.329Z,100.00
2022-10-05T05:44:53.850Z,100.00
2022-10-05T05:47:27.027Z,100.00
2022-10-05T05:50:07.607Z,100.00
2022-10-05T05:52:39.187Z,100.00
2022-10-05T05:55:16.776Z,100.00
2022-10-05T05:57:50.003Z,100.00
2022-10-05T06:00:21.568Z,100.00
2022-10-05T06:02:55.585Z,100.00
2022-10-05T06:05:29.988Z,98.74
2022-10-05T06:08:00.080Z,97.31
2022-10-05T06:10:34.903Z,96.32
2022-10-05T06:13:06.380Z,96.65
2022-10-05T06:15:38.591Z,96.58
2022-10-05T06:18:11.227Z,96.51
2022-10-05T06:20:42.544Z,96.50
2022-10-05T06:23:16.777Z,97.11
2022-10-05T06:26:10.406Z,97.01
2022-10-05T06:28:37.625Z,97.05
2022-10-05T06:31:17.670Z,96.99
2022-10-05T06:33:49.782Z,96.62
2022-10-05T06:36:26.538Z,96.38
2022-10-05T06:39:09.863Z,96.28
2022-10-05T06:41:49.784Z,96.75
2022-10-05T06:44:22.102Z,99.92
2022-10-05T06:47:00.015Z,99.55
2022-10-05T06:49:31.140Z,98.72
2022-10-05T06:52:08.634Z,98.32
2022-10-05T06:54:45.290Z,96.35
2022-10-05T06:57:28.203Z,96.34
2022-10-05T07:00:00.875Z,96.17
2022-10-05T07:02:38.937Z,96.24
2022-10-05T07:05:43.714Z,95.58
2022-10-05T07:08:13.547Z,94.47
2022-10-05T07:10:54.528Z,93.68
2022-10-05T07:13:42.433Z,92.89
2022-10-05T07:16:20.855Z,93.12
2022-10-05T07:18:56.949Z,93.55
2022-10-05T07:21:33.383Z,92.03
2022-10-05T07:24:09.980Z,92.86
2022-10-05T07:26:42.932Z,92.75
2022-10-05T07:29:21.372Z,91.98
2022-10-05T07:31:55.649Z,91.50
2022-10-05T07:34:29.997Z,90.85
2022-10-05T07:37:02.893Z,90.68
2022-10-05T07:39:59.138Z,89.96
2022-10-05T07:42:32.652Z,89.21
2022-10-05T07:45:13.099Z,88.68
2022-10-05T07:47:45.624Z,88.74
2022-10-05T07:50:20.298Z,88.83
2022-10-05T07:52:53.883Z,88.63
2022-10-05T07:55:22.870Z,88.21
2022-10-05T07:58:00.517Z,86.79
2022-10-05T08:00:48.842Z,86.57
2022-10-05T08:03:22.677Z,86.54
2022-10-05T08:05:49.297Z,85.97
2022-10-05T08:08:21.338Z,85.23
2022-10-05T08:10:54.775Z,84.79
2022-10-05T08:13:29.232Z,85.16
2022-10-05T08:16:00.616Z,84.83
2022-10-05T08:18:41.904Z,84.37
2022-10-05T08:21:09.649Z,83.84
2022-10-05T08:23:43.250Z,82.84
2022-10-05T08:26:19.085Z,82.14
2022-10-05T08:28:53.696Z,82.79
2022-10-05T08:31:24.970Z,82.32
2022-10-05T08:33:58.416Z,80.47
2022-10-05T08:36:42.792Z,80.35
2022-10-05T08:39:14.178Z,79.39
2022-10-05T08:42:14.281Z,78.63
2022-10-05T08:45:16.692Z,77.69
2022-10-05T08:48:19.112Z,77.29
2022-10-05T08:51:03.600Z,76.80
2022-10-05T08:53:46.881Z,77.03
2022-10-05T08:56:41.350Z,76.14
2022-10-05T08:59:27.562Z,76.23
2022-10-05T09:02:16.393Z,75.34
2022-10-05T09:04:59.666Z,76.32
2022-10-05T09:07:41.708Z,75.50
2022-10-05T09:10:22.265Z,75.41
2022-10-05T09:13:36.175Z,75.66
2022-10-05T09:16:29.272Z,76.93
2022-10-05T09:19:22.483Z,77.02
2022-10-05T09:21:57.293Z,77.22
2022-10-05T09:24:27.767Z,76.64
2022-10-05T09:27:02.124Z,74.76
2022-10-05T09:30:04.305Z,74.87
2022-10-05T09:33:16.125Z,76.02
2022-10-05T09:36:11.807Z,76.50
2022-10-05T09:39:08.809Z,75.79
2022-10-05T09:42:05.594Z,76.49
2022-10-05T09:45:21.524Z,75.23
2022-10-05T09:48:22.494Z,75.54
2022-10-05T09:51:23.664Z,77.51
2022-10-05T09:54:18.910Z,75.67
2022-10-05T09:57:07.388Z,75.93
2022-10-05T10:03:21.444Z,74.09
2022-10-05T10:06:08.709Z,75.46
2022-10-05T10:08:45.546Z,74.70
2022-10-05T10:11:25.659Z,72.88
2022-10-05T10:14:05.475Z,73.39
2022-10-05T10:16:50.616Z,71.55
2022-10-05T10:19:30.317Z,72.69
2022-10-05T10:22:16.136Z,73.32
2022-10-05T10:25:17.647Z,73.42
2022-10-05T10:28:01.535Z,73.29
2022-10-05T10:30:52.595Z,72.45
2022-10-05T10:33:54.728Z,72.21
2022-10-05T10:36:33.168Z,71.88
2022-10-05T10:39:04.373Z,73.21
2022-10-05T10:42:05.702Z,73.04
2022-10-05T10:44:55.524Z,73.47
2022-10-05T10:47:45.864Z,73.06
2022-10-05T10:50:40.606Z,72.17
2022-10-05T10:53:53.561Z,72.92
2022-10-05T10:56:37.422Z,71.73
2022-10-05T10:59:26.726Z,72.04
2022-10-05T11:02:20.939Z,70.95
2022-10-05T11:05:21.152Z,70.72
2022-10-05T11:08:27.406Z,70.00
2022-10-05T11:11:23.214Z,71.09
2022-10-05T11:14:22.793Z,69.59
2022-10-05T11:17:29.313Z,69.56
2022-10-05T11:20:11.941Z,70.18
2022-10-05T11:22:54.644Z,70.81
2022-10-05T11:25:46.866Z,70.03
2022-10-05T11:28:25.563Z,70.57
2022-10-05T11:31:23.388Z,70.36
2022-10-05T11:34:26.274Z,70.34
2022-10-05T11:37:24.366Z,69.00
2022-10-05T11:40:14.348Z,70.91
2022-10-05T11:43:09.104Z,71.19
2022-10-05T11:45:55.472Z,70.89
2022-10-05T11:48:50.447Z,70.63
2022-10-05T11:51:28.915Z,70.03
2022-10-05T11:54:10.453Z,70.21
2022-10-05T11:56:41.745Z,71.38
2022-10-05T11:59:15.358Z,70.46
2022-10-05T12:01:50.300Z,69.58
2022-10-05T12:04:21.162Z,70.04
2022-10-05T12:07:00.756Z,69.80
2022-10-05T12:09:42.268Z,69.56
2022-10-05T12:12:18.379Z,70.03
2022-10-05T12:14:56.847Z,69.95
2022-10-05T12:17:31.834Z,69.81
2022-10-05T12:20:01.944Z,71.10
2022-10-05T12:22:33.763Z,69.19
2022-10-05T12:25:04.625Z,68.95
2022-10-05T12:27:35.984Z,69.13
2022-10-05T12:30:12.186Z,69.81
2022-10-05T12:32:43.639Z,68.74
2022-10-05T12:35:30.077Z,68.36
2022-10-05T12:38:16.400Z,70.49
2022-10-05T12:40:49.206Z,70.72
2022-10-05T12:43:25.090Z,69.71
2022-10-05T12:46:03.655Z,70.27
2022-10-05T12:48:53.708Z,69.87
2022-10-05T12:51:27.111Z,69.37
2022-10-05T12:53:59.442Z,71.44
2022-10-05T12:56:40.056Z,70.68
2022-10-05T12:59:17.345Z,70.70
2022-10-05T13:01:53.654Z,70.52
2022-10-05T13:04:31.734Z,70.56
2022-10-05T13:07:14.366Z,71.74
2022-10-05T13:09:52.039Z,70.67
2022-10-05T13:12:28.063Z,70.31
2022-10-05T13:15:05.071Z,71.14
2022-10-05T13:17:39.881Z,71.37
2022-10-05T13:20:19.356Z,70.33
2022-10-05T13:22:52.232Z,70.48
2022-10-05T13:25:24.185Z,71.05
2022-10-05T13:28:08.986Z,70.92
2022-10-05T13:30:36.803Z,71.01
2022-10-05T13:33:12.401Z,70.85
2022-10-05T13:35:45.790Z,70.64
2022-10-05T13:38:30.352Z,70.96
2022-10-05T13:41:07.543Z,70.67
2022-10-05T13:43:44.231Z,70.62
2022-10-05T13:46:19.103Z,70.85
2022-10-05T13:48:58.803Z,71.69
2022-10-05T13:51:35.592Z,71.54
2022-10-05T13:54:09.234Z,71.33
2022-10-05T13:56:41.618Z,70.62
2022-10-05T13:59:18.716Z,71.26
2022-10-05T14:01:55.396Z,69.79
2022-10-05T14:04:27.161Z,71.29
2022-10-05T14:06:53.670Z,71.05
2022-10-05T14:09:29.646Z,71.71
2022-10-05T14:12:12.176Z,71.45
2022-10-05T14:14:46.607Z,71.65
2022-10-05T14:17:15.665Z,72.23
2022-10-05T14:19:45.548Z,72.01
2022-10-05T14:22:15.026Z,71.87
2022-10-05T14:24:50.864Z,71.55
2022-10-05T14:27:21.355Z,71.53
2022-10-05T14:29:56.929Z,71.42
2022-10-05T14:32:25.084Z,72.25
2022-10-05T14:34:59.944Z,71.83
2022-10-05T14:37:33.079Z,72.56
2022-10-05T14:40:20.830Z,72.04
2022-10-05T14:42:47.610Z,72.05
2022-10-05T14:45:19.056Z,72.82
2022-10-05T14:47:49.491Z,73.03
2022-10-05T14:50:18.747Z,72.15
2022-10-05T14:52:58.062Z,72.06
2022-10-05T14:55:36.709Z,73.34
2022-10-05T14:58:18.355Z,73.85
2022-10-05T15:00:54.075Z,73.60
2022-10-05T15:03:32.857Z,74.38
2022-10-05T15:06:00.939Z,74.48
2022-10-05T15:08:43.450Z,75.00
2022-10-05T15:11:16.987Z,74.56
2022-10-05T15:13:45.601Z,75.89
2022-10-05T15:16:19.386Z,75.00
2022-10-05T15:18:51.886Z,75.86
2022-10-05T15:21:31.942Z,75.42
2022-10-05T15:24:03.071Z,75.82
2022-10-05T15:26:47.608Z,75.65
2022-10-05T15:29:42.539Z,76.38
2022-10-05T15:32:28.927Z,76.89
2022-10-05T15:35:15.352Z,77.30
2022-10-05T15:37:44.623Z,77.22
2022-10-05T15:40:21.554Z,77.77
2022-10-05T15:42:53.168Z,78.22
2022-10-05T15:45:24.195Z,79.73
2022-10-05T15:47:59.332Z,79.88
2022-10-05T15:50:28.170Z,79.36
2022-10-05T15:52:58.675Z,80.21
2022-10-05T15:55:38.426Z,80.75
2022-10-05T15:58:33.000Z,81.31
2022-10-05T16:01:07.170Z,81.62
2022-10-05T16:03:45.688Z,82.36
2022-10-05T16:06:23.364Z,82.36
2022-10-05T16:09:10.431Z,83.00
2022-10-05T16:12:01.853Z,83.39
2022-10-05T16:14:39.103Z,83.92
2022-10-05T16:17:20.718Z,84.49
2022-10-05T16:20:00.564Z,84.36
2022-10-05T16:22:42.483Z,85.21
2022-10-05T16:25:19.636Z,85.46
2022-10-05T16:28:05.462Z,86.04
2022-10-05T16:30:44.587Z,85.65
2022-10-05T16:33:18.233Z,85.78
2022-10-05T16:35:54.733Z,86.43
2022-10-05T16:38:29.195Z,85.86
2022-10-05T16:41:03.893Z,86.16
2022-10-05T16:43:41.257Z,85.82
2022-10-05T16:46:21.991Z,86.55
2022-10-05T16:48:59.171Z,86.88
2022-10-05T16:51:34.211Z,86.75
2022-10-05T16:54:12.931Z,87.25
2022-10-05T16:56:43.919Z,87.25
2022-10-05T16:59:41.692Z,87.67
2022-10-05T17:02:15.430Z,87.89
2022-10-05T17:04:51.709Z,87.83
2022-10-05T17:07:32.422Z,88.41
2022-10-05T17:10:22.267Z,88.29
2022-10-05T17:13:00.501Z,88.19
2022-10-05T17:15:39.655Z,88.66
2022-10-05T17:18:30.125Z,88.46
2022-10-05T17:21:02.122Z,89.21
2022-10-05T17:23:42.832Z,89.40
2022-10-05T17:26:34.263Z,90.02
2022-10-05T17:29:12.573Z,89.93
2022-10-05T17:32:00.834Z,90.08
2022-10-05T17:34:29.760Z,89.78
2022-10-05T17:36:57.895Z,89.79
2022-10-05T17:39:50.315Z,89.96
2022-10-05T17:42:45.646Z,90.20
2022-10-05T17:46:04.012Z,90.62
2022-10-05T17:48:43.716Z,91.22
2022-10-05T17:51:37.872Z,91.50
2022-10-05T17:54:29.109Z,91.26
2022-10-05T17:57:21.715Z,90.67
2022-10-05T17:59:58.392Z,90.34
2022-10-05T18:02:39.679Z,90.25
2022-10-05T18:05:21.391Z,90.75
2022-10-05T18:08:30.266Z,90.60
2022-10-05T18:11:13.126Z,90.46
2022-10-05T18:13:43.732Z,90.00
2022-10-05T18:16:10.470Z,90.00
2022-10-05T18:18:55.604Z,90.10
2022-10-05T18:21:33.698Z,90.16
2022-10-05T18:24:17.640Z,89.50
2022-10-05T18:26:54.775Z,88.81
2022-10-05T18:29:36.851Z,88.35
2022-10-05T18:32:07.883Z,87.71
2022-10-05T18:34:38.500Z,86.96
2022-10-05T18:37:19.709Z,86.96
2022-10-05T18:40:06.175Z,86.38
2022-10-05T18:42:41.492Z,86.28
2022-10-05T18:45:23.165Z,86.47
2022-10-05T18:48:01.220Z,86.32
2022-10-05T18:50:33.629Z,86.05
2022-10-05T18:53:17.143Z,86.92
2022-10-05T18:55:49.170Z,86.01
2022-10-05T18:58:21.016Z,86.44
2022-10-05T19:01:00.353Z,86.38
2022-10-05T19:03:35.108Z,86.42
2022-10-05T19:06:12.966Z,86.84
2022-10-05T19:08:49.157Z,86.78
2022-10-05T19:11:22.575Z,86.88
2022-10-05T19:13:59.735Z,87.27
2022-10-05T19:16:40.874Z,86.93
2022-10-05T19:19:28.201Z,87.15
2022-10-05T19:22:03.492Z,86.82
2022-10-05T19:24:48.107Z,86.44
2022-10-05T19:27:24.658Z,86.12
2022-10-05T19:30:09.996Z,85.54
2022-10-05T19:32:58.652Z,85.30
2022-10-05T19:35:32.761Z,84.89
2022-10-05T19:38:20.576Z,84.28
2022-10-05T19:40:58.537Z,84.49
2022-10-05T19:43:41.895Z,84.51
2022-10-05T19:46:19.367Z,84.26
2022-10-05T19:48:49.636Z,84.58
2022-10-05T19:51:26.823Z,85.04
2022-10-05T19:53:53.639Z,84.58
2022-10-05T19:56:22.699Z,84.84
2022-10-05T19:58:52.283Z,85.08
2022-10-05T20:01:27.074Z,84.76
2022-10-05T20:03:53.834Z,85.18
2022-10-05T20:06:21.204Z,85.74
2022-10-05T20:11:18.290Z,85.74
2022-10-05T20:13:46.918Z,86.40
2022-10-05T20:16:28.306Z,85.95
2022-10-05T20:18:54.994Z,86.33
2022-10-05T20:21:44.918Z,86.85
2022-10-05T20:24:13.099Z,87.61
2022-10-05T20:26:41.429Z,87.85
2022-10-05T20:29:08.746Z,89.17
2022-10-05T20:31:36.712Z,89.19
2022-10-05T20:34:03.292Z,89.63
2022-10-05T20:36:29.831Z,89.87
2022-10-05T20:38:56.334Z,90.78
2022-10-05T20:41:22.863Z,89.80
2022-10-05T20:43:49.404Z,90.78
2022-10-05T20:46:16.002Z,90.70
2022-10-05T20:48:44.069Z,90.89
2022-10-05T20:51:10.602Z,90.96
2022-10-05T20:53:37.112Z,90.18
2022-10-05T20:56:03.757Z,90.83
2022-10-05T20:58:30.823Z,92.90
2022-10-05T21:00:57.787Z,93.25
2022-10-05T21:03:24.386Z,93.44
2022-10-05T21:05:52.312Z,93.80
2022-10-05T21:08:18.844Z,93.33
2022-10-05T21:10:45.415Z,93.80
2022-10-05T21:13:11.962Z,94.49
2022-10-05T21:15:38.512Z,94.65
2022-10-05T21:18:05.135Z,95.34
2022-10-05T21:20:31.673Z,95.80
2022-10-05T21:22:59.542Z,95.85
2022-10-05T21:25:26.077Z,96.55
2022-10-05T21:27:52.603Z,96.37
2022-10-05T21:30:19.149Z,96.27
2022-10-05T21:32:45.688Z,96.21
2022-10-05T21:35:12.282Z,96.18
2022-10-05T21:37:38.803Z,96.56
2022-10-05T21:40:07.477Z,97.46
2022-10-05T21:42:34.111Z,96.88
2022-10-05T21:45:00.639Z,97.02
2022-10-05T21:47:27.197Z,96.62
2022-10-05T21:49:54.007Z,95.87
2022-10-05T21:52:21.032Z,95.86
2022-10-05T21:54:47.634Z,95.78
2022-10-05T21:57:15.830Z,96.45
2022-10-05T21:59:43.088Z,96.75
2022-10-05T22:02:09.654Z,96.60
2022-10-05T22:04:36.179Z,96.75
2022-10-05T22:07:09.474Z,97.02
2022-10-05T22:09:35.992Z,97.39
2022-10-05T22:12:02.542Z,98.12
2022-10-05T22:14:30.416Z,97.88
2022-10-05T22:16:56.985Z,98.28
2022-10-05T22:19:23.534Z,98.09
2022-10-05T22:21:50.085Z,98.28
2022-10-05T22:24:16.664Z,98.26
2022-10-05T22:26:46.951Z,98.80
2022-10-05T22:29:15.776Z,98.96
2022-10-05T22:31:44.929Z,98.91
2022-10-05T22:34:11.455Z,98.68
2022-10-05T22:36:37.998Z,98.80
2022-10-05T22:39:04.528Z,99.25
2022-10-05T22:41:31.090Z,99.17
2022-10-05T22:43:57.646Z,98.81
2022-10-05T22:46:24.257Z,98.94
2022-10-05T22:48:52.200Z,99.04
2022-10-05T22:51:18.724Z,99.47
2022-10-05T22:53:45.245Z,99.00
2022-10-05T22:56:13.547Z,99.12
2022-10-05T22:58:40.955Z,99.09
2022-10-05T23:01:09.305Z,99.20
2022-10-05T23:03:36.313Z,99.49
2022-10-05T23:06:06.497Z,99.41
2022-10-05T23:08:34.888Z,99.87
2022-10-05T23:11:02.192Z,99.78
2022-10-05T23:13:28.774Z,99.62
2022-10-05T23:15:55.402Z,99.55
2022-10-05T23:18:22.000Z,99.62
2022-10-05T23:20:53.070Z,99.19
2022-10-05T23:23:21.107Z,99.12
2022-10-05T23:25:47.636Z,99.12
2022-10-05T23:28:14.254Z,98.68
2022-10-05T23:30:40.900Z,98.86
2022-10-05T23:33:07.592Z,98.54
2022-10-05T23:35:34.115Z,98.11
2022-10-05T23:38:00.649Z,98.16
2022-10-05T23:40:28.525Z,98.24
2022-10-05T23:42:55.059Z,98.40
2022-10-05T23:45:22.044Z,99.07
2022-10-05T23:47:48.671Z,99.19
2022-10-05T23:50:15.405Z,99.21
2022-10-05T23:52:41.977Z,99.32
2022-10-05T23:55:09.287Z,98.78
2022-10-05T23:57:37.167Z,98.44
